Time;durP1;ratioP1;P1;durP2;ratioP2;P2;SDS_P1;SDS_P2;PMS_P1;PMS_P2;Temp;Humidity;BMP_temperature;BMP_pressure;BME280_temperature;BME280_humidity;BME280_pressure;Samples;Min_cycle;Max_cycle;Signal;HPM_P1;HPM_P2
2021/07/04 00:00:29;;;;;;;5.60;4.35;;;20.10;72.30;;;20.35;58.63;97374.09;5045122;28;20049;-40
2021/07/04 00:02:59;;;;;;;8.35;5.10;;;20.20;72.30;;;20.36;58.61;97364.16;5046167;28;20045;-40
2021/07/04 00:05:37;;;;;;;6.13;5.28;;;20.20;72.30;;;20.33;58.44;97361.88;5046117;28;20061;-40
2021/07/04 00:08:12;;;;;;;6.10;4.93;;;20.10;72.70;;;20.31;58.68;97353.19;5044285;28;20057;-40
2021/07/04 00:10:58;;;;;;;6.20;5.03;;;20.10;72.80;;;20.31;58.67;97350.47;5043795;28;20056;-40
2021/07/04 00:13:29;;;;;;;6.05;5.45;;;20.10;73.10;;;20.24;59.21;97351.41;5043528;28;20049;-40
2021/07/04 00:15:57;;;;;;;8.15;6.20;;;20.00;73.60;;;20.22;59.28;97347.25;5046880;28;20057;-40
2021/07/04 00:18:30;;;;;;;5.63;4.78;;;19.90;73.80;;;20.21;59.25;97356.44;5044777;28;20057;-40
2021/07/04 00:20:59;;;;;;;6.45;5.75;;;20.00;74.20;;;20.19;59.39;97358.56;5043373;28;20056;-40
2021/07/04 00:23:27;;;;;;;22.50;15.93;;;19.90;74.20;;;20.16;59.44;97354.44;5045415;28;20250;-40
2021/07/04 00:25:56;;;;;;;20.45;13.63;;;19.90;74.00;;;20.13;59.22;97364.88;5045785;28;20375;-40
2021/07/04 00:28:25;;;;;;;8.27;6.57;;;19.80;73.90;;;20.06;59.36;97362.25;5045026;28;20067;-39
2021/07/04 00:30:54;;;;;;;6.70;5.40;;;19.80;74.00;;;20.02;59.74;97363.78;5044072;28;20375;-40
2021/07/04 00:33:22;;;;;;;6.30;5.70;;;19.80;74.00;;;19.97;60.13;97369.88;5043050;28;20259;-40
2021/07/04 00:35:51;;;;;;;6.40;5.75;;;19.80;74.40;;;19.95;60.36;97381.94;5045829;28;20069;-40
2021/07/04 00:38:19;;;;;;;6.60;5.22;;;19.80;74.80;;;19.94;60.41;97378.41;5044654;28;20061;-40
2021/07/04 00:40:48;;;;;;;5.90;4.80;;;19.70;76.20;;;19.94;60.29;97377.59;5044930;28;20067;-39
2021/07/04 00:43:18;;;;;;;6.25;5.18;;;19.70;75.70;;;19.92;60.52;97369.72;5043806;28;20065;-39
2021/07/04 00:45:45;;;;;;;6.65;4.68;;;19.60;75.80;;;19.90;60.42;97371.81;5044871;28;20339;-39
2021/07/04 00:48:14;;;;;;;5.88;4.95;;;19.60;76.00;;;19.86;60.44;97374.16;5044438;28;20349;-39
2021/07/04 00:50:44;;;;;;;5.75;5.07;;;19.60;76.10;;;19.84;60.48;97361.94;5045107;28;20061;-39
2021/07/04 00:53:16;;;;;;;5.65;4.70;;;19.50;76.30;;;19.77;60.79;97353.06;5047121;28;20063;-41
2021/07/04 00:55:44;;;;;;;4.97;4.45;;;19.50;76.40;;;19.73;61.07;97352.69;5048967;28;20056;-40
2021/07/04 00:58:15;;;;;;;12.02;5.63;;;19.50;76.30;;;19.71;61.14;97352.06;5048308;28;20065;-40
2021/07/04 01:00:45;;;;;;;5.45;4.95;;;19.50;76.50;;;19.70;61.05;97352.28;5046098;28;20049;-40
2021/07/04 01:03:14;;;;;;;6.50;5.35;;;19.50;76.70;;;19.65;61.14;97350.28;5049769;28;20512;-40
2021/07/04 01:05:47;;;;;;;6.65;4.55;;;19.40;76.80;;;19.63;61.15;97341.59;5047391;28;20045;-39
2021/07/04 01:08:17;;;;;;;5.88;4.97;;;19.30;77.10;;;19.60;61.20;97340.19;5047311;28;20051;-39
2021/07/04 01:10:47;;;;;;;8.80;5.32;;;19.30;77.10;;;19.57;61.38;97346.00;5047608;28;20059;-39
2021/07/04 01:13:17;;;;;;;6.68;5.97;;;19.30;77.00;;;19.56;61.54;97347.09;5047350;28;20071;-39
2021/07/04 01:15:56;;;;;;;9.57;5.50;;;19.30;77.40;;;19.54;61.52;97341.09;5050207;28;20067;-40
2021/07/04 01:18:25;;;;;;;6.30;5.22;;;19.20;77.50;;;19.50;61.43;97341.75;5046132;28;20060;-39
2021/07/04 01:21:01;;;;;;;7.45;6.43;;;19.10;77.90;;;19.44;61.70;97335.38;5045049;28;20365;-39
2021/07/04 01:23:30;;;;;;;7.45;5.40;;;19.10;78.10;;;19.42;61.80;97334.78;5047758;28;20059;-40
2021/07/04 01:25:59;;;;;;;9.07;6.10;;;19.10;78.30;;;19.38;61.86;97334.41;5047016;28;20045;-39
2021/07/04 01:28:32;;;;;;;9.43;6.15;;;19.00;78.60;;;19.34;62.02;97343.19;5048156;28;20037;-39
2021/07/04 01:31:05;;;;;;;7.77;5.73;;;18.90;78.90;;;19.30;62.14;97341.97;5045731;28;20059;-40
2021/07/04 01:33:36;;;;;;;6.45;5.28;;;18.90;79.60;;;19.26;62.27;97339.72;5047611;28;20067;-41
2021/07/04 01:36:11;;;;;;;7.03;5.70;;;18.80;79.70;;;19.20;62.62;97343.31;5047108;28;20350;-40
2021/07/04 01:38:43;;;;;;;6.82;6.13;;;18.80;80.10;;;19.20;62.69;97337.09;5045271;28;20048;-39
2021/07/04 01:41:13;;;;;;;7.07;5.50;;;18.80;80.20;;;19.18;62.81;97340.00;5047154;28;20045;-40
2021/07/04 01:43:41;;;;;;;9.73;5.80;;;18.80;80.20;;;19.18;62.92;97345.41;5049501;28;20238;-39
2021/07/04 01:46:09;;;;;;;6.40;5.75;;;18.80;80.30;;;19.15;63.12;97339.63;5049679;28;20051;-40
2021/07/04 01:48:39;;;;;;;7.18;5.90;;;18.80;80.70;;;19.14;63.18;97343.41;5045591;28;20063;-40
2021/07/04 01:51:12;;;;;;;10.07;5.75;;;18.80;80.70;;;19.12;63.10;97338.22;5047686;28;20056;-41
2021/07/04 01:53:41;;;;;;;6.35;5.75;;;18.70;80.80;;;19.10;63.52;97334.09;5046495;28;20064;-40
2021/07/04 01:56:23;;;;;;;7.03;5.20;;;18.80;81.00;;;19.06;63.57;97337.22;5044706;28;20083;-40
2021/07/04 01:58:56;;;;;;;5.35;4.28;;;18.70;81.20;;;19.06;63.42;97331.03;5044875;28;20059;-40
2021/07/04 02:01:37;;;;;;;7.95;5.63;;;18.70;81.20;;;19.05;63.43;97340.97;5046834;28;20056;-40
2021/07/04 02:04:06;;;;;;;6.30;4.95;;;18.70;81.00;;;19.05;63.31;97327.47;5046153;28;20057;-39
2021/07/04 02:06:37;;;;;;;6.22;5.07;;;18.80;80.80;;;19.06;63.38;97331.84;5046327;28;20048;-40
2021/07/04 02:09:07;;;;;;;9.68;6.25;;;18.70;80.70;;;19.07;63.18;97330.78;5045228;28;20145;-40
2021/07/04 02:11:36;;;;;;;7.32;5.43;;;18.80;80.50;;;19.06;63.31;97334.53;5046758;28;20063;-40
2021/07/04 02:14:09;;;;;;;7.78;5.25;;;18.80;80.50;;;19.02;63.14;97332.53;5044839;28;20661;-41
2021/07/04 02:16:57;;;;;;;6.18;5.25;;;18.70;80.50;;;18.99;63.11;97333.78;5044187;28;20055;-40
2021/07/04 02:19:44;;;;;;;6.45;4.78;;;18.60;80.50;;;18.95;63.15;97326.34;5047624;28;20056;-41
2021/07/04 02:22:31;;;;;;;5.70;4.85;;;18.60;80.50;;;18.89;63.27;97328.88;5046131;28;20127;-41
2021/07/04 02:25:06;;;;;;;7.10;5.07;;;18.50;80.70;;;18.85;63.18;97330.38;5046359;28;20048;-41
2021/07/04 02:27:39;;;;;;;6.72;5.53;;;18.50;80.80;;;18.83;63.30;97326.25;5044589;28;20494;-41
2021/07/04 02:30:22;;;;;;;5.57;4.72;;;18.50;80.80;;;18.80;63.33;97322.13;5044014;28;20063;-41
2021/07/04 02:32:53;;;;;;;7.50;5.90;;;18.50;80.80;;;18.81;63.32;97325.66;5045646;28;20067;-41
2021/07/04 02:35:23;;;;;;;6.65;5.07;;;18.50;80.70;;;18.81;63.32;97325.66;5063260;28;20462;-41
2021/07/04 02:37:52;;;;;;;6.25;5.20;;;18.50;80.60;;;18.81;63.21;97323.78;5044743;28;20235;-41
2021/07/04 02:40:27;;;;;;;7.38;5.38;;;18.50;80.40;;;18.84;63.40;97319.81;5045372;28;20057;-41
2021/07/04 02:43:01;;;;;;;6.93;5.55;;;18.50;80.50;;;18.87;63.44;97325.59;5046386;28;20067;-40
2021/07/04 02:45:29;;;;;;;7.35;5.05;;;18.60;80.30;;;18.87;63.39;97328.28;5047009;28;20049;-40
2021/07/04 02:48:20;;;;;;;6.60;5.18;;;18.70;80.20;;;18.91;63.32;97322.47;5047271;28;20045;-40
2021/07/04 02:50:51;;;;;;;6.68;4.97;;;18.70;80.10;;;18.93;63.27;97318.47;5046541;28;20342;-41
2021/07/04 02:53:25;;;;;;;4.50;3.90;;;18.70;80.00;;;18.94;63.38;97314.75;5045401;28;20061;-41
2021/07/04 02:55:56;;;;;;;6.85;4.75;;;18.70;80.00;;;18.94;63.35;97311.19;5045865;28;20067;-41
2021/07/04 02:58:30;;;;;;;8.23;4.70;;;18.70;80.00;;;18.95;63.31;97307.47;5060887;28;20243;-41
2021/07/04 03:00:59;;;;;;;8.55;5.85;;;18.60;80.00;;;18.90;63.32;97316.22;5046134;28;20441;-41
2021/07/04 03:03:27;;;;;;;5.63;4.88;;;18.70;80.10;;;18.91;63.37;97317.06;5044086;28;20347;-41
2021/07/04 03:05:57;;;;;;;6.80;4.68;;;18.60;80.10;;;18.88;63.34;97321.84;5046344;28;20342;-41
2021/07/04 03:08:26;;;;;;;6.18;4.68;;;18.60;80.10;;;18.85;63.32;97316.88;5043359;28;20385;-41
2021/07/04 03:10:56;;;;;;;5.38;4.65;;;18.60;80.30;;;18.84;63.41;97311.72;5043826;28;20306;-41
2021/07/04 03:13:30;;;;;;;6.45;4.45;;;18.50;80.20;;;18.83;63.48;97310.91;5044806;28;20053;-41
2021/07/04 03:16:01;;;;;;;5.70;4.60;;;18.60;80.20;;;18.85;63.53;97308.81;5045240;28;20053;-41
2021/07/04 03:18:30;;;;;;;6.50;4.78;;;18.60;80.00;;;18.86;63.45;97323.09;5046030;28;20061;-41
2021/07/04 03:20:58;;;;;;;6.10;4.28;;;18.70;80.00;;;18.85;63.42;97322.28;5045806;28;20048;-40
2021/07/04 03:23:28;;;;;;;5.60;4.25;;;18.60;79.80;;;18.85;63.42;97316.06;5043955;28;20059;-41
2021/07/04 03:26:01;;;;;;;9.30;4.57;;;18.60;79.90;;;18.82;63.53;97317.31;5044399;28;20080;-41
2021/07/04 03:28:32;;;;;;;5.15;3.90;;;18.50;80.10;;;18.82;63.61;97311.94;5045436;28;20051;-40
2021/07/04 03:31:18;;;;;;;5.78;4.97;;;18.50;80.20;;;18.81;63.63;97306.78;5045746;28;20053;-40
2021/07/04 03:33:50;;;;;;;6.10;5.28;;;18.50;80.30;;;18.79;63.64;97304.28;5058990;28;20053;-41
2021/07/04 03:36:18;;;;;;;6.07;4.93;;;18.50;80.50;;;18.78;63.67;97302.59;5044439;28;20139;-40
2021/07/04 03:38:46;;;;;;;6.28;4.90;;;18.50;80.60;;;18.79;63.57;97304.28;5044389;28;20052;-41
2021/07/04 03:41:14;;;;;;;6.47;4.68;;;18.50;80.60;;;18.76;63.61;97302.00;5044273;28;20060;-41
2021/07/04 03:43:44;;;;;;;5.00;4.40;;;18.40;80.60;;;18.77;63.73;97298.28;5044169;28;20061;-41
2021/07/04 03:46:12;;;;;;;5.95;4.97;;;18.40;80.50;;;18.70;63.89;97303.72;5044715;28;20223;-41
2021/07/04 03:48:44;;;;;;;5.40;4.63;;;18.40;80.80;;;18.70;63.97;97298.31;5045172;28;20049;-41
2021/07/04 03:51:24;;;;;;;7.78;5.07;;;18.50;81.00;;;18.73;63.86;97298.91;5060601;28;20060;-41
2021/07/04 03:53:53;;;;;;;5.95;4.78;;;18.50;80.80;;;18.75;63.91;97310.34;5044145;28;20174;-41
2021/07/04 03:56:22;;;;;;;6.55;4.68;;;18.50;80.60;;;18.78;63.91;97301.78;5045497;28;20060;-40
2021/07/04 03:58:53;;;;;;;11.43;4.88;;;18.60;80.50;;;18.80;63.69;97300.53;5061655;28;20059;-40
2021/07/04 04:01:22;;;;;;;5.20;4.65;;;18.60;80.40;;;18.81;63.69;97298.69;5028041;28;20049;-40
2021/07/04 04:03:52;;;;;;;6.18;4.28;;;18.60;80.40;;;18.84;63.76;97300.94;5042996;28;20056;-40
2021/07/04 04:06:21;;;;;;;5.10;3.95;;;18.60;80.30;;;18.87;63.69;97301.31;5043480;28;20057;-40
2021/07/04 04:08:58;;;;;;;5.68;4.75;;;18.60;80.10;;;18.91;63.57;97304.41;5043146;28;20049;-41
2021/07/04 04:11:34;;;;;;;6.72;4.60;;;18.60;80.00;;;18.94;63.53;97312.06;5043183;28;20050;-41
2021/07/04 04:14:09;;;;;;;6.07;4.30;;;18.70;80.10;;;18.95;63.58;97307.47;5060989;28;20270;-41
2021/07/04 04:16:40;;;;;;;5.57;4.47;;;18.80;80.00;;;18.97;63.46;97311.59;5042877;28;20255;-40
2021/07/04 04:19:13;;;;;;;8.05;4.70;;;18.80;79.90;;;18.99;63.40;97314.06;5045270;28;20053;-40
2021/07/04 04:21:42;;;;;;;6.35;4.72;;;18.80;79.80;;;19.00;63.50;97319.25;5044067;28;20048;-40
2021/07/04 04:24:12;;;;;;;5.35;4.40;;;18.80;79.80;;;19.02;63.56;97322.53;5044926;28;20051;-41
2021/07/04 04:26:42;;;;;;;4.82;4.25;;;18.80;79.70;;;19.03;63.61;97324.19;5041543;28;20355;-40
2021/07/04 04:29:11;;;;;;;4.82;4.15;;;18.80;79.70;;;19.05;63.51;97319.38;5044890;28;20053;-40
2021/07/04 04:31:42;;;;;;;4.88;4.03;;;18.90;79.60;;;19.06;63.45;97310.25;5040607;23;20049;-40
2021/07/04 04:34:11;;;;;;;4.47;3.67;;;18.90;79.40;;;19.07;63.52;97311.06;5023470;28;20045;-40
2021/07/04 04:36:39;;;;;;;5.20;3.95;;;18.90;79.60;;;19.10;63.49;97312.53;5025206;28;20451;-40
2021/07/04 04:39:07;;;;;;;5.30;4.20;;;18.90;79.50;;;19.12;63.45;97315.81;5024423;28;20354;-40
2021/07/04 04:41:36;;;;;;;6.28;4.05;;;18.90;79.60;;;19.13;63.61;97317.44;5024751;28;20060;-40
2021/07/04 04:44:06;;;;;;;5.82;4.57;;;18.90;79.70;;;19.16;63.62;97315.13;5026372;28;20077;-40
2021/07/04 04:46:34;;;;;;;4.75;4.32;;;19.00;79.70;;;19.20;63.71;97308.22;5024513;28;20046;-40
2021/07/04 04:49:03;;;;;;;5.63;4.88;;;19.10;79.70;;;19.22;63.76;97308.84;5024132;28;20046;-41
2021/07/04 04:51:30;;;;;;;5.10;4.30;;;19.10;79.50;;;19.24;63.84;97306.72;5025090;28;20060;-40
2021/07/04 04:53:58;;;;;;;4.82;4.22;;;19.20;79.40;;;19.25;63.43;97300.31;5024466;28;20056;-40
2021/07/04 04:56:26;;;;;;;5.38;4.57;;;19.20;79.40;;;19.26;63.83;97293.84;5025367;28;20199;-40
2021/07/04 04:58:54;;;;;;;5.20;4.55;;;19.10;79.50;;;19.25;63.86;97300.31;5023280;28;20088;-40
2021/07/04 05:01:26;;;;;;;5.55;4.68;;;19.10;79.60;;;19.28;63.72;97289.03;5025179;28;20064;-40
2021/07/04 05:03:54;;;;;;;5.72;4.40;;;19.20;79.50;;;19.31;63.83;97298.59;5024939;28;20057;-40
2021/07/04 05:06:22;;;;;;;7.97;4.80;;;19.20;79.60;;;19.33;63.88;97296.47;5025085;28;20058;-41
2021/07/04 05:08:51;;;;;;;5.60;4.65;;;19.20;79.70;;;19.35;63.90;97282.72;5024138;28;20057;-41
2021/07/04 05:11:19;;;;;;;7.90;5.20;;;19.20;79.70;;;19.36;63.92;97292.50;5023416;28;20064;-41
2021/07/04 05:13:47;;;;;;;7.70;5.05;;;19.30;79.80;;;19.39;63.94;97284.78;5024656;28;20059;-41
2021/07/04 05:16:17;;;;;;;8.30;5.63;;;19.30;79.80;;;19.42;64.10;97283.47;5024248;28;20065;-41
2021/07/04 05:18:45;;;;;;;6.63;5.47;;;19.30;79.90;;;19.43;64.10;97277.88;5024733;28;20056;-41
2021/07/04 05:21:13;;;;;;;5.57;4.78;;;19.40;79.90;;;19.47;64.07;97275.53;5024371;28;20057;-40
2021/07/04 05:23:44;;;;;;;7.07;5.30;;;19.40;79.90;;;19.49;64.19;97278.84;5024881;28;20049;-41
2021/07/04 05:26:12;;;;;;;6.40;5.32;;;19.40;79.90;;;19.52;64.34;97285.66;5025118;28;20324;-41
2021/07/04 05:28:41;;;;;;;7.10;6.22;;;19.50;80.10;;;19.54;64.26;97276.28;5024473;28;20056;-41
2021/07/04 05:31:08;;;;;;;7.40;5.07;;;19.50;80.20;;;19.57;64.32;97278.53;5024374;28;20703;-41
2021/07/04 05:33:36;;;;;;;6.35;4.75;;;19.60;80.00;;;19.60;64.41;97269.13;5025034;28;20064;-41
2021/07/04 05:36:04;;;;;;;5.65;4.80;;;19.60;79.60;;;19.60;64.24;97266.44;5025180;28;20052;-41
2021/07/04 05:38:34;;;;;;;5.60;4.95;;;19.60;79.50;;;19.61;64.12;97263.50;5028391;28;20057;-41
2021/07/04 05:41:03;;;;;;;6.32;4.82;;;19.60;79.60;;;19.64;64.05;97264.94;5027881;28;20060;-40
2021/07/04 05:43:31;;;;;;;9.02;5.32;;;19.60;79.60;;;19.64;64.05;97260.38;5028193;28;20521;-41
2021/07/04 05:46:00;;;;;;;5.97;5.05;;;19.60;79.40;;;19.64;63.94;97263.06;5028412;28;20055;-41
2021/07/04 05:48:29;;;;;;;6.18;4.90;;;19.60;79.30;;;19.63;63.99;97260.59;5028069;28;20063;-41
2021/07/04 05:50:58;;;;;;;6.43;5.72;;;19.60;79.30;;;19.61;64.02;97260.81;5027676;28;20037;-41
2021/07/04 05:53:25;;;;;;;7.50;5.15;;;19.60;79.40;;;19.63;64.09;97260.59;5029206;28;20366;-41
2021/07/04 05:55:54;;;;;;;7.22;5.50;;;19.60;79.30;;;19.63;64.14;97269.50;5043612;28;20072;-41
2021/07/04 05:58:22;;;;;;;7.38;4.82;;;19.60;79.40;;;19.65;64.25;97261.19;5027977;28;20247;-41
2021/07/04 06:00:50;;;;;;;7.47;5.60;;;19.70;79.80;;;19.68;64.35;97253.44;5027667;28;20238;-41
2021/07/04 06:03:18;;;;;;;6.65;5.35;;;19.60;79.80;;;19.68;64.31;97258.03;5027938;28;20064;-41
2021/07/04 06:05:46;;;;;;;7.20;5.57;;;19.60;79.80;;;19.70;64.31;97255.09;5027876;28;20068;-41
2021/07/04 06:08:14;;;;;;;5.97;5.32;;;19.60;79.80;;;19.69;64.13;97256.97;5027352;28;20057;-41
2021/07/04 06:10:44;;;;;;;5.95;5.03;;;19.60;80.00;;;19.68;64.46;97252.63;5029182;28;20053;-41
2021/07/04 06:13:12;;;;;;;6.97;5.35;;;19.60;80.80;;;19.65;64.37;97243.09;5026711;28;20381;-40
2021/07/04 06:15:40;;;;;;;5.82;5.07;;;19.60;79.80;;;19.65;64.53;97253.91;5026640;28;20080;-41
2021/07/04 06:18:08;;;;;;;6.60;5.95;;;19.70;79.90;;;19.68;64.41;97255.34;5028990;28;20061;-41
2021/07/04 06:20:36;;;;;;;6.95;5.88;;;19.70;79.60;;;19.66;64.65;97252.84;5027778;28;20367;-41
2021/07/04 06:23:04;;;;;;;7.75;4.78;;;19.80;79.50;;;19.68;64.23;97258.03;5026913;28;20060;-41
2021/07/04 06:25:32;;;;;;;6.35;5.53;;;19.70;79.50;;;19.71;64.27;97259.44;5025725;28;20041;-40
2021/07/04 06:28:00;;;;;;;7.47;5.32;;;19.80;79.50;;;19.73;64.07;97255.47;5027842;28;20049;-40
2021/07/04 06:30:28;;;;;;;4.93;4.43;;;19.80;79.20;;;19.75;64.14;97250.69;5026992;28;20042;-39
2021/07/04 06:32:56;;;;;;;6.95;5.20;;;19.80;79.20;;;19.76;64.44;97243.41;5025947;28;20350;-40
2021/07/04 06:35:24;;;;;;;4.70;4.25;;;19.80;79.10;;;19.81;63.91;97240.84;5022883;28;20338;-41
2021/07/04 06:37:53;;;;;;;5.43;4.93;;;19.90;78.70;;;19.85;63.83;97248.25;5024618;28;20483;-40
2021/07/04 06:40:21;;;;;;;7.72;4.90;;;19.90;78.30;;;19.88;63.38;97246.97;5025825;28;20335;-41
2021/07/04 06:42:50;;;;;;;6.70;4.90;;;20.00;78.00;;;19.93;63.33;97249.81;5025191;28;20107;-41
2021/07/04 06:45:18;;;;;;;11.77;5.53;;;20.00;77.70;;;19.98;63.11;97255.31;5026624;28;20064;-41
2021/07/04 06:47:48;;;;;;;6.07;4.82;;;20.10;77.30;;;20.03;62.76;97252.78;5024007;28;20052;-41
2021/07/04 06:50:19;;;;;;;5.25;4.75;;;20.10;76.70;;;20.11;62.62;97258.91;5026393;28;20056;-41
2021/07/04 06:52:48;;;;;;;8.65;5.53;;;20.20;76.40;;;20.19;62.65;97270.19;5026300;28;20241;-41
2021/07/04 06:55:17;;;;;;;6.07;4.55;;;20.40;76.20;;;20.30;62.45;97263.16;5024747;28;20057;-41
2021/07/04 06:57:46;;;;;;;6.28;4.53;;;20.50;76.00;;;20.36;62.12;97270.34;5025755;28;20060;-41
2021/07/04 07:00:16;;;;;;;5.60;4.75;;;20.60;75.70;;;20.42;62.06;97266.69;5025187;28;20389;-41
2021/07/04 07:02:47;;;;;;;5.63;4.35;;;20.60;75.60;;;20.46;62.27;97264.34;5024987;28;20422;-40
2021/07/04 07:05:16;;;;;;;6.90;5.45;;;20.70;75.50;;;20.49;62.22;97268.47;5025948;28;20051;-40
2021/07/04 07:07:44;;;;;;;7.25;6.55;;;20.60;75.20;;;20.50;61.91;97262.84;5025720;28;20055;-41
2021/07/04 07:10:13;;;;;;;6.05;5.40;;;20.60;75.40;;;20.51;61.84;97258.25;5024677;28;20043;-40
2021/07/04 07:12:45;;;;;;;7.72;5.38;;;20.60;75.60;;;20.50;62.06;97256.59;5023865;28;20064;-41
2021/07/04 07:15:15;;;;;;;6.97;5.47;;;20.60;75.70;;;20.49;61.77;97246.84;5025248;28;20382;-41
2021/07/04 07:17:43;;;;;;;6.57;5.78;;;20.60;75.80;;;20.49;61.67;97244.13;5026733;28;20052;-40
2021/07/04 07:20:14;;;;;;;7.15;4.93;;;20.50;75.60;;;20.45;61.74;97243.78;5024258;28;20087;-41
2021/07/04 07:22:43;;;;;;;6.28;5.28;;;20.50;75.90;;;20.42;61.84;97245.06;5025082;28;20059;-41
2021/07/04 07:25:16;;;;;;;7.30;5.68;;;20.40;75.40;;;20.46;61.86;97230.03;5026660;28;20059;-41
2021/07/04 07:27:44;;;;;;;6.38;5.43;;;20.50;75.90;;;20.49;62.35;97236.03;5025435;28;20038;-41
2021/07/04 07:30:13;;;;;;;5.82;5.05;;;20.60;76.30;;;20.53;62.08;97234.50;5024548;28;20052;-41
2021/07/04 07:32:41;;;;;;;5.95;4.55;;;20.70;75.60;;;20.59;61.74;97234.41;5023381;28;20063;-40
2021/07/04 07:35:10;;;;;;;5.63;5.03;;;20.70;75.30;;;20.65;61.70;97229.97;5026054;28;20347;-40
2021/07/04 07:37:40;;;;;;;6.40;5.57;;;20.80;74.80;;;20.72;61.62;97229.81;5023168;28;20057;-41
2021/07/04 07:40:09;;;;;;;7.20;5.78;;;20.90;74.20;;;20.69;61.45;97228.41;5023029;28;20372;-41
2021/07/04 07:42:48;;;;;;;5.80;5.18;;;20.90;75.30;;;20.72;60.92;97225.22;5022732;28;20063;-41
2021/07/04 07:45:16;;;;;;;6.22;5.07;;;20.80;73.90;;;20.74;61.21;97216.88;5025085;28;20363;-41
2021/07/04 07:47:49;;;;;;;5.90;4.65;;;20.80;74.00;;;20.75;60.73;97202.31;5022651;28;20061;-40
2021/07/04 07:50:17;;;;;;;6.63;5.63;;;20.80;74.00;;;20.76;60.71;97202.09;5025198;28;20049;-39
2021/07/04 07:52:45;;;;;;;6.07;5.45;;;20.80;74.10;;;20.83;61.06;97194.63;5024618;28;20231;-39
2021/07/04 07:55:14;;;;;;;6.65;5.65;;;21.00;74.20;;;20.92;61.49;97203.22;5024041;28;20055;-39
2021/07/04 07:57:42;;;;;;;6.32;5.60;;;21.10;74.40;;;20.99;61.73;97195.78;5024446;28;20052;-39
2021/07/04 08:00:13;;;;;;;7.18;5.32;;;21.20;74.50;;;21.07;61.30;97189.16;5021180;28;20060;-39
2021/07/04 08:02:45;;;;;;;6.38;5.43;;;21.40;74.30;;;21.15;61.56;97196.09;5023567;28;20060;-39
2021/07/04 08:05:19;;;;;;;5.95;5.35;;;21.40;74.10;;;21.19;60.82;97197.25;5023727;28;20263;-39
2021/07/04 08:07:47;;;;;;;5.97;5.20;;;21.50;73.80;;;21.23;61.17;97193.84;5022855;28;20061;-39
2021/07/04 08:10:15;;;;;;;7.05;5.47;;;21.60;73.70;;;21.28;61.23;97195.81;5024150;28;20105;-39
2021/07/04 08:12:44;;;;;;;6.65;5.68;;;21.60;73.80;;;21.35;61.06;97196.50;5024883;28;20068;-39
2021/07/04 08:15:12;;;;;;;7.75;6.40;;;21.70;73.90;;;21.43;60.91;97192.59;5023568;28;20234;-39
2021/07/04 08:17:44;;;;;;;8.63;5.90;;;21.80;73.70;;;21.48;60.91;97195.44;5023835;28;20057;-39
2021/07/04 08:20:14;;;;;;;9.82;6.38;;;21.80;73.60;;;21.52;60.69;97190.34;5024244;28;20245;-39
2021/07/04 08:22:44;;;;;;;7.18;5.68;;;21.80;73.30;;;21.58;60.47;97189.41;5025427;28;20372;-39
2021/07/04 08:25:14;;;;;;;7.25;6.28;;;21.90;73.30;;;21.63;60.50;97187.59;5023982;28;20046;-39
2021/07/04 08:27:43;;;;;;;6.47;5.28;;;22.00;72.80;;;21.67;60.48;97182.50;5023414;28;20362;-39
2021/07/04 08:30:14;;;;;;;6.80;5.68;;;21.90;72.80;;;21.71;60.26;97185.53;5025374;28;20075;-39
2021/07/04 08:32:43;;;;;;;6.63;5.60;;;22.00;72.70;;;21.78;60.37;97184.31;5026515;28;20057;-39
2021/07/04 08:35:12;;;;;;;9.02;6.25;;;22.10;72.40;;;21.81;60.24;97181.13;5024583;28;20053;-39
2021/07/04 08:37:40;;;;;;;6.55;5.22;;;22.20;72.30;;;21.88;60.09;97180.97;5024647;28;20061;-39
2021/07/04 08:40:10;;;;;;;7.00;5.50;;;22.20;72.10;;;21.94;60.07;97190.00;5023356;28;20083;-39
2021/07/04 08:42:38;;;;;;;6.85;5.32;;;22.30;72.00;;;22.02;59.81;97192.31;5025113;28;20049;-39
2021/07/04 08:45:07;;;;;;;6.88;5.68;;;22.40;71.80;;;22.09;59.50;97182.13;5024246;28;20042;-39
2021/07/04 08:47:36;;;;;;;7.50;5.53;;;22.50;72.50;;;22.19;59.61;97186.91;5024300;28;20046;-39
2021/07/04 08:50:06;;;;;;;6.60;5.45;;;22.60;71.30;;;22.29;59.51;97187.09;5022704;28;20144;-39
2021/07/04 08:52:36;;;;;;;7.00;5.93;;;22.80;70.80;;;22.37;59.00;97185.84;5023204;28;20049;-39
2021/07/04 08:55:06;;;;;;;6.93;5.55;;;22.80;70.10;;;22.42;58.55;97181.31;5024410;28;20056;-39
2021/07/04 08:57:37;;;;;;;6.70;5.55;;;22.90;69.90;;;22.47;58.33;97182.47;5038018;28;20059;-39
2021/07/04 09:00:07;;;;;;;5.25;4.72;;;23.00;69.40;;;22.52;58.58;97180.66;5039016;28;20049;-39
2021/07/04 09:02:37;;;;;;;5.88;4.63;;;23.00;69.50;;;22.56;58.29;97178.25;5040429;28;20407;-39
2021/07/04 09:05:11;;;;;;;6.00;5.47;;;23.00;69.10;;;22.57;57.69;97180.72;5037144;28;20053;-39
2021/07/04 09:07:41;;;;;;;5.25;4.63;;;23.00;68.50;;;22.58;57.65;97179.66;5038333;28;20063;-39
2021/07/04 09:10:17;;;;;;;5.80;5.07;;;23.00;68.50;;;22.63;57.52;97178.09;5037218;28;20080;-39
2021/07/04 09:12:52;;;;;;;6.95;5.57;;;23.00;68.40;;;22.64;57.04;97163.44;5039097;28;20050;-39
2021/07/04 09:15:26;;;;;;;6.13;5.53;;;23.00;67.90;;;22.64;56.09;97166.16;5041985;28;20045;-39
2021/07/04 09:17:57;;;;;;;6.05;5.30;;;23.00;67.40;;;22.63;56.48;97168.06;5043212;28;20349;-40
2021/07/04 09:20:28;;;;;;;5.82;5.20;;;23.00;66.90;;;22.66;56.33;97164.03;5038850;28;20067;-39
2021/07/04 09:22:58;;;;;;;6.78;5.95;;;23.00;66.90;;;22.67;56.52;97166.50;5043682;28;20063;-39
2021/07/04 09:25:29;;;;;;;10.20;5.90;;;23.00;67.40;;;22.68;57.13;97164.59;5043301;28;20211;-39
2021/07/04 09:28:07;;;;;;;6.85;5.20;;;23.00;68.10;;;22.69;57.25;97158.09;5041776;28;20049;-39
2021/07/04 09:30:45;;;;;;;6.68;5.18;;;23.10;68.60;;;22.71;57.71;97159.47;5040279;28;20045;-39
2021/07/04 09:33:15;;;;;;;5.85;5.18;;;23.10;69.20;;;22.73;57.46;97149.19;5041990;28;20057;-39
2021/07/04 09:35:56;;;;;;;6.05;5.45;;;23.10;68.50;;;22.77;57.33;97161.19;5038880;28;20064;-39
2021/07/04 09:38:31;;;;;;;5.82;5.05;;;23.20;66.80;;;22.80;57.34;97155.28;5041338;28;20057;-39
2021/07/04 09:41:01;;;;;;;6.15;5.47;;;23.20;68.30;;;22.85;56.75;97151.78;5045929;28;20184;-39
2021/07/04 09:43:31;;;;;;;5.63;4.55;;;23.30;67.80;;;22.92;56.57;97152.44;5038013;28;20068;-39
2021/07/04 09:46:09;;;;;;;6.15;4.20;;;23.30;67.40;;;22.98;56.46;97142.47;5043883;28;20045;-39
2021/07/04 09:48:50;;;;;;;5.68;5.15;;;23.50;66.50;;;23.04;56.20;97140.66;5044924;28;20049;-39
2021/07/04 09:51:21;;;;;;;5.82;4.95;;;23.50;66.90;;;23.10;56.33;97135.03;5043977;28;20057;-39
2021/07/04 09:53:50;;;;;;;6.40;4.53;;;23.50;67.10;;;23.14;55.66;97138.88;5042911;28;20060;-39
2021/07/04 09:56:28;;;;;;;5.50;5.00;;;23.60;66.20;;;23.16;55.68;97138.63;5044012;28;20080;-39
2021/07/04 09:59:03;;;;;;;6.47;5.00;;;23.60;65.00;;;23.19;55.07;97128.06;5043216;28;20057;-39
2021/07/04 10:01:46;;;;;;;5.57;5.03;;;23.60;65.20;;;23.23;54.21;97125.69;5044239;28;20238;-39
2021/07/04 10:04:30;;;;;;;5.55;4.80;;;23.70;63.30;;;23.24;54.40;97116.44;5044347;28;20041;-39
2021/07/04 10:06:59;;;;;;;5.97;4.70;;;23.70;62.70;;;23.28;54.31;97114.03;5044216;28;20046;-39
2021/07/04 10:09:29;;;;;;;5.13;4.43;;;23.70;64.10;;;23.28;54.07;97114.84;5044770;28;20107;-39
2021/07/04 10:11:58;;;;;;;5.45;4.95;;;23.70;63.90;;;23.24;53.60;97121.88;5044359;28;20052;-40
2021/07/04 10:14:27;;;;;;;4.90;4.40;;;23.70;63.30;;;23.26;53.57;97121.63;5043571;28;20247;-39
2021/07/04 10:16:57;;;;;;;5.03;4.40;;;23.70;63.50;;;23.25;52.78;97106.41;5044125;28;20049;-39
2021/07/04 10:19:29;;;;;;;5.35;4.65;;;23.70;62.50;;;23.26;52.75;97106.13;5042684;28;20053;-39
2021/07/04 10:22:03;;;;;;;6.72;5.30;;;23.70;62.50;;;23.27;52.74;97110.50;5042903;28;20053;-39
2021/07/04 10:24:31;;;;;;;5.55;4.53;;;23.70;62.30;;;23.28;52.85;97109.41;5042541;28;20052;-39
2021/07/04 10:27:04;;;;;;;6.07;4.40;;;23.60;62.50;;;23.29;52.89;97111.06;5044123;28;20050;-39
2021/07/04 10:29:32;;;;;;;5.80;4.63;;;23.70;62.30;;;23.30;52.73;97107.28;5038845;28;20208;-39
2021/07/04 10:32:13;;;;;;;4.82;4.00;;;23.70;62.70;;;23.31;52.32;97114.34;5040510;28;20359;-39